Terminal Aerodrome Forecast
Issued by NWS Sterling, VA

Home | Current Version | Previous Version | Text Only | Print | Product List | Glossary On
Versions: 1 2 3 4 5 6 7 8 9 10 11 12 13 14 15 16 17 18 19
427
FTUS41 KLWX 261721
TAFDCA
TAF
KDCA 261721Z 2618/2718 36007KT P6SM OVC023
     FM262200 VRB03KT P6SM BKN030
     FM270100 13005KT P6SM SCT250
     FM270300 15004KT P6SM FEW040
     FM270800 14004KT 5SM BR SCT250
     FM270900 14004KT 2SM BR SCT250
     FM271300 17007KT P6SM SCT250=

USA.gov is the U.S. government's official web portal to all federal, state and local government web resources and services.